sensor_id;sensor_type;location;lat;lon;timestamp;pressure;altitude;pressure_sealevel;temperature;humidity
19447;BME280;9862;49.462;11.054;2023-03-18T00:00:44;97611.06;;;11.99;88.46
19447;BME280;9862;49.462;11.054;2023-03-18T00:03:12;97620.09;;;11.98;88.61
19447;BME280;9862;49.462;11.054;2023-03-18T00:05:39;97623.00;;;11.97;89.16
19447;BME280;9862;49.462;11.054;2023-03-18T00:08:06;97624.84;;;11.96;89.93
19447;BME280;9862;49.462;11.054;2023-03-18T00:10:34;97614.78;;;11.98;89.28
19447;BME280;9862;49.462;11.054;2023-03-18T00:13:01;97611.28;;;11.98;88.08
19447;BME280;9862;49.462;11.054;2023-03-18T00:15:28;97623.22;;;11.95;87.61
19447;BME280;9862;49.462;11.054;2023-03-18T00:17:56;97627.63;;;11.90;88.77
19447;BME280;9862;49.462;11.054;2023-03-18T00:20:25;97621.91;;;11.86;89.38
19447;BME280;9862;49.462;11.054;2023-03-18T00:23:03;97610.06;;;11.82;89.59
19447;BME280;9862;49.462;11.054;2023-03-18T00:25:30;97609.25;;;11.82;90.73
19447;BME280;9862;49.462;11.054;2023-03-18T00:27:57;97619.94;;;11.82;90.65
19447;BME280;9862;49.462;11.054;2023-03-18T00:30:23;97615.22;;;11.77;91.24
19447;BME280;9862;49.462;11.054;2023-03-18T00:32:50;97613.84;;;11.74;91.52
19447;BME280;9862;49.462;11.054;2023-03-18T00:35:17;97629.81;;;11.74;92.36
19447;BME280;9862;49.462;11.054;2023-03-18T00:37:45;97627.38;;;11.73;92.00
19447;BME280;9862;49.462;11.054;2023-03-18T00:40:13;97614.53;;;11.70;91.68
19447;BME280;9862;49.462;11.054;2023-03-18T00:42:44;97621.72;;;11.69;92.09
19447;BME280;9862;49.462;11.054;2023-03-18T00:45:15;97631.91;;;11.72;92.07
19447;BME280;9862;49.462;11.054;2023-03-18T00:47:43;97630.88;;;11.73;88.42
19447;BME280;9862;49.462;11.054;2023-03-18T00:50:10;97620.75;;;11.64;89.74
19447;BME280;9862;49.462;11.054;2023-03-18T00:52:38;97627.56;;;11.60;90.13
19447;BME280;9862;49.462;11.054;2023-03-18T00:55:07;97633.94;;;11.59;89.68
19447;BME280;9862;49.462;11.054;2023-03-18T00:57:35;97626.66;;;11.66;88.63
19447;BME280;9862;49.462;11.054;2023-03-18T01:00:02;97617.34;;;11.57;89.14
19447;BME280;9862;49.462;11.054;2023-03-18T01:02:31;97616.63;;;11.50;90.01
19447;BME280;9862;49.462;11.054;2023-03-18T01:04:58;97615.44;;;11.45;90.18
19447;BME280;9862;49.462;11.054;2023-03-18T01:07:25;97615.03;;;11.49;90.34
19447;BME280;9862;49.462;11.054;2023-03-18T01:09:51;97620.34;;;11.49;91.40
19447;BME280;9862;49.462;11.054;2023-03-18T01:12:20;97623.59;;;11.51;91.79
19447;BME280;9862;49.462;11.054;2023-03-18T01:14:47;97618.69;;;11.47;92.50
19447;BME280;9862;49.462;11.054;2023-03-18T01:17:14;97625.22;;;11.52;92.99
19447;BME280;9862;49.462;11.054;2023-03-18T01:19:41;97617.44;;;11.50;93.06
19447;BME280;9862;49.462;11.054;2023-03-18T01:22:08;97623.59;;;11.51;93.67
19447;BME280;9862;49.462;11.054;2023-03-18T01:24:34;97628.13;;;11.50;93.21
19447;BME280;9862;49.462;11.054;2023-03-18T01:27:01;97631.00;;;11.49;93.17
19447;BME280;9862;49.462;11.054;2023-03-18T01:29:29;97628.63;;;11.40;93.30
19447;BME280;9862;49.462;11.054;2023-03-18T01:31:55;97624.34;;;11.39;93.48
19447;BME280;9862;49.462;11.054;2023-03-18T01:34:22;97626.63;;;11.36;93.34
19447;BME280;9862;49.462;11.054;2023-03-18T01:36:49;97629.97;;;11.31;93.31
19447;BME280;9862;49.462;11.054;2023-03-18T01:39:16;97632.06;;;11.29;93.98
19447;BME280;9862;49.462;11.054;2023-03-18T01:41:43;97625.88;;;11.29;93.92
19447;BME280;9862;49.462;11.054;2023-03-18T01:44:14;97629.97;;;11.31;95.31
19447;BME280;9862;49.462;11.054;2023-03-18T01:46:44;97632.06;;;11.29;94.43
19447;BME280;9862;49.462;11.054;2023-03-18T01:49:13;97635.72;;;11.28;94.00
19447;BME280;9862;49.462;11.054;2023-03-18T01:51:45;97634.91;;;11.28;94.29
19447;BME280;9862;49.462;11.054;2023-03-18T01:54:14;97635.88;;;11.33;94.95
19447;BME280;9862;49.462;11.054;2023-03-18T01:56:42;97635.66;;;11.35;93.53
19447;BME280;9862;49.462;11.054;2023-03-18T01:59:10;97637.28;;;11.36;95.37
19447;BME280;9862;49.462;11.054;2023-03-18T02:01:41;97642.25;;;11.32;95.24
19447;BME280;9862;49.462;11.054;2023-03-18T02:04:10;97637.75;;;11.33;95.24
19447;BME280;9862;49.462;11.054;2023-03-18T02:06:37;97648.84;;;11.30;95.57
19447;BME280;9862;49.462;11.054;2023-03-18T02:09:05;97653.94;;;11.31;96.21
19447;BME280;9862;49.462;11.054;2023-03-18T02:11:36;97656.03;;;11.29;94.46
19447;BME280;9862;49.462;11.054;2023-03-18T02:14:03;97647.28;;;11.22;94.56
19447;BME280;9862;49.462;11.054;2023-03-18T02:16:44;97659.41;;;11.18;95.45
19447;BME280;9862;49.462;11.054;2023-03-18T02:19:21;97649.78;;;11.17;95.43
19447;BME280;9862;49.462;11.054;2023-03-18T02:21:55;97661.72;;;11.14;95.75
19447;BME280;9862;49.462;11.054;2023-03-18T02:24:34;97653.03;;;11.19;96.48
19447;BME280;9862;49.462;11.054;2023-03-18T02:27:12;97666.34;;;11.19;97.12
19447;BME280;9862;49.462;11.054;2023-03-18T02:29:40;97662.06;;;11.18;98.21
19447;BME280;9862;49.462;11.054;2023-03-18T02:32:09;97671.91;;;11.17;98.42
19447;BME280;9862;49.462;11.054;2023-03-18T02:34:36;97667.41;;;11.18;98.75
19447;BME280;9862;49.462;11.054;2023-03-18T02:37:05;97664.31;;;11.21;99.61
19447;BME280;9862;49.462;11.054;2023-03-18T02:39:32;97669.41;;;11.23;98.77
19447;BME280;9862;49.462;11.054;2023-03-18T02:42:00;97668.59;;;11.22;99.63
19447;BME280;9862;49.462;11.054;2023-03-18T02:44:28;97673.13;;;11.22;100.00
19447;BME280;9862;49.462;11.054;2023-03-18T02:46:56;97675.47;;;11.48;97.89
19447;BME280;9862;49.462;11.054;2023-03-18T02:49:25;97672.00;;;11.29;98.35
19447;BME280;9862;49.462;11.054;2023-03-18T02:51:53;97679.69;;;11.19;98.83
19447;BME280;9862;49.462;11.054;2023-03-18T02:54:21;97675.09;;;11.08;100.00
19447;BME280;9862;49.462;11.054;2023-03-18T02:56:49;97672.66;;;11.06;100.00
19447;BME280;9862;49.462;11.054;2023-03-18T02:59:16;97670.78;;;11.07;100.00
19447;BME280;9862;49.462;11.054;2023-03-18T03:01:46;97670.38;;;11.10;100.00
19447;BME280;9862;49.462;11.054;2023-03-18T03:04:14;97683.25;;;11.13;100.00
19447;BME280;9862;49.462;11.054;2023-03-18T03:06:42;97683.00;;;11.14;100.00
19447;BME280;9862;49.462;11.054;2023-03-18T03:09:11;97682.47;;;11.06;100.00
19447;BME280;9862;49.462;11.054;2023-03-18T03:11:40;97677.75;;;11.08;99.89
19447;BME280;9862;49.462;11.054;2023-03-18T03:14:08;97682.53;;;10.99;100.00
19447;BME280;9862;49.462;11.054;2023-03-18T03:16:35;97690.38;;;10.94;100.00
19447;BME280;9862;49.462;11.054;2023-03-18T03:19:06;97692.69;;;10.91;100.00
19447;BME280;9862;49.462;11.054;2023-03-18T03:21:34;97704.97;;;10.92;100.00
19447;BME280;9862;49.462;11.054;2023-03-18T03:24:02;97693.06;;;10.94;100.00
19447;BME280;9862;49.462;11.054;2023-03-18T03:26:29;97698.38;;;10.94;100.00
19447;BME280;9862;49.462;11.054;2023-03-18T03:28:56;97703.78;;;11.06;99.86
19447;BME280;9862;49.462;11.054;2023-03-18T03:31:22;97705.72;;;11.17;97.25
19447;BME280;9862;49.462;11.054;2023-03-18T03:33:50;97706.13;;;10.96;99.90
19447;BME280;9862;49.462;11.054;2023-03-18T03:36:18;97702.38;;;10.78;100.00
19447;BME280;9862;49.462;11.054;2023-03-18T03:38:45;97705.13;;;10.72;100.00
19447;BME280;9862;49.462;11.054;2023-03-18T03:41:12;97712.78;;;10.86;100.00
19447;BME280;9862;49.462;11.054;2023-03-18T03:43:40;97699.94;;;10.77;100.00
19447;BME280;9862;49.462;11.054;2023-03-18T03:46:08;97703.28;;;10.72;100.00
19447;BME280;9862;49.462;11.054;2023-03-18T03:48:35;97700.00;;;10.70;100.00
19447;BME280;9862;49.462;11.054;2023-03-18T03:51:02;97707.97;;;10.70;100.00
19447;BME280;9862;49.462;11.054;2023-03-18T03:53:31;97707.78;;;10.72;100.00
19447;BME280;9862;49.462;11.054;2023-03-18T03:55:58;97713.00;;;10.85;100.00
19447;BME280;9862;49.462;11.054;2023-03-18T03:58:25;97709.19;;;10.74;100.00
19447;BME280;9862;49.462;11.054;2023-03-18T04:00:52;97706.00;;;10.66;100.00
19447;BME280;9862;49.462;11.054;2023-03-18T04:03:18;97711.13;;;10.60;100.00
19447;BME280;9862;49.462;11.054;2023-03-18T04:05:45;97710.94;;;10.62;100.00
19447;BME280;9862;49.462;11.054;2023-03-18T04:08:12;97718.47;;;10.65;100.00
19447;BME280;9862;49.462;11.054;2023-03-18T04:10:39;97722.19;;;10.64;100.00
19447;BME280;9862;49.462;11.054;2023-03-18T04:13:07;97724.84;;;10.64;100.00
19447;BME280;9862;49.462;11.054;2023-03-18T04:15:34;97716.63;;;10.66;100.00
19447;BME280;9862;49.462;11.054;2023-03-18T04:18:01;97717.00;;;10.69;100.00
19447;BME280;9862;49.462;11.054;2023-03-18T04:20:31;97725.59;;;10.71;100.00
19447;BME280;9862;49.462;11.054;2023-03-18T04:22:59;97719.84;;;10.74;100.00
19447;BME280;9862;49.462;11.054;2023-03-18T04:25:26;97720.81;;;10.80;100.00
19447;BME280;9862;49.462;11.054;2023-03-18T04:27:54;97720.03;;;10.98;100.00
19447;BME280;9862;49.462;11.054;2023-03-18T04:30:21;97721.31;;;10.95;100.00
19447;BME280;9862;49.462;11.054;2023-03-18T04:32:49;97708.97;;;10.76;100.00
19447;BME280;9862;49.462;11.054;2023-03-18T04:35:17;97712.56;;;10.63;100.00
19447;BME280;9862;49.462;11.054;2023-03-18T04:37:43;97716.91;;;10.57;100.00
19447;BME280;9862;49.462;11.054;2023-03-18T04:40:11;97716.66;;;10.59;100.00
19447;BME280;9862;49.462;11.054;2023-03-18T04:42:38;97714.59;;;10.61;100.00
19447;BME280;9862;49.462;11.054;2023-03-18T04:45:06;97710.94;;;10.62;100.00
19447;BME280;9862;49.462;11.054;2023-03-18T04:47:33;97726.47;;;10.65;100.00
19447;BME280;9862;49.462;11.054;2023-03-18T04:50:00;97708.78;;;10.71;100.00
19447;BME280;9862;49.462;11.054;2023-03-18T04:52:28;97712.44;;;10.76;100.00
19447;BME280;9862;49.462;11.054;2023-03-18T04:54:55;97720.22;;;10.78;100.00
19447;BME280;9862;49.462;11.054;2023-03-18T04:57:22;97715.84;;;10.58;100.00
19447;BME280;9862;49.462;11.054;2023-03-18T04:59:49;97717.56;;;10.53;100.00
19447;BME280;9862;49.462;11.054;2023-03-18T05:02:17;97721.03;;;10.53;100.00
19447;BME280;9862;49.462;11.054;2023-03-18T05:04:44;97709.34;;;10.54;100.00
19447;BME280;9862;49.462;11.054;2023-03-18T05:07:11;97713.03;;;10.53;100.00
19447;BME280;9862;49.462;11.054;2023-03-18T05:09:40;97718.75;;;10.57;100.00
19447;BME280;9862;49.462;11.054;2023-03-18T05:12:10;97726.59;;;10.45;100.00
19447;BME280;9862;49.462;11.054;2023-03-18T05:14:39;97732.41;;;10.36;100.00
19447;BME280;9862;49.462;11.054;2023-03-18T05:17:05;97735.28;;;10.34;100.00
19447;BME280;9862;49.462;11.054;2023-03-18T05:19:34;97727.09;;;10.29;100.00
19447;BME280;9862;49.462;11.054;2023-03-18T05:22:01;97719.34;;;10.27;100.00
19447;BME280;9862;49.462;11.054;2023-03-18T05:24:27;97733.66;;;10.33;100.00
19447;BME280;9862;49.462;11.054;2023-03-18T05:26:54;97730.56;;;10.36;100.00
19447;BME280;9862;49.462;11.054;2023-03-18T05:29:21;97725.00;;;10.38;100.00
19447;BME280;9862;49.462;11.054;2023-03-18T05:31:48;97733.00;;;10.38;100.00
19447;BME280;9862;49.462;11.054;2023-03-18T05:34:14;97733.00;;;10.38;100.00
19447;BME280;9862;49.462;11.054;2023-03-18T05:36:42;97728.72;;;10.37;100.00
19447;BME280;9862;49.462;11.054;2023-03-18T05:39:09;97729.31;;;10.39;100.00
19447;BME280;9862;49.462;11.054;2023-03-18T05:41:36;97729.31;;;10.39;100.00
19447;BME280;9862;49.462;11.054;2023-03-18T05:44:02;97734.00;;;10.43;100.00
19447;BME280;9862;49.462;11.054;2023-03-18T05:46:30;97740.50;;;10.47;100.00
19447;BME280;9862;49.462;11.054;2023-03-18T05:48:56;97736.81;;;10.48;100.00
19447;BME280;9862;49.462;11.054;2023-03-18T05:51:23;97734.56;;;10.52;100.00
19447;BME280;9862;49.462;11.054;2023-03-18T05:53:52;97733.53;;;10.53;100.00
19447;BME280;9862;49.462;11.054;2023-03-18T05:56:19;97734.25;;;10.60;100.00
19447;BME280;9862;49.462;11.054;2023-03-18T05:58:45;97735.47;;;10.64;100.00
19447;BME280;9862;49.462;11.054;2023-03-18T06:01:12;97733.84;;;10.63;100.00
19447;BME280;9862;49.462;11.054;2023-03-18T06:03:39;97730.16;;;10.64;100.00
19447;BME280;9862;49.462;11.054;2023-03-18T06:06:07;97733.03;;;10.63;100.00
19447;BME280;9862;49.462;11.054;2023-03-18T06:08:33;97735.69;;;10.63;100.00
19447;BME280;9862;49.462;11.054;2023-03-18T06:11:01;97731.78;;;10.65;100.00
19447;BME280;9862;49.462;11.054;2023-03-18T06:13:28;97737.91;;;10.66;100.00
19447;BME280;9862;49.462;11.054;2023-03-18T06:15:55;97737.88;;;10.72;100.00
19447;BME280;9862;49.462;11.054;2023-03-18T06:18:22;97737.44;;;10.75;100.00
19447;BME280;9862;49.462;11.054;2023-03-18T06:20:48;97745.78;;;10.79;100.00
19447;BME280;9862;49.462;11.054;2023-03-18T06:23:15;97741.47;;;10.84;100.00
19447;BME280;9862;49.462;11.054;2023-03-18T06:25:42;97744.72;;;10.86;100.00
19447;BME280;9862;49.462;11.054;2023-03-18T06:28:12;97742.72;;;10.82;100.00
19447;BME280;9862;49.462;11.054;2023-03-18T06:30:38;97743.94;;;10.79;100.00
19447;BME280;9862;49.462;11.054;2023-03-18T06:33:05;97734.56;;;10.77;100.00
19447;BME280;9862;49.462;11.054;2023-03-18T06:35:32;97739.06;;;10.76;100.00
19447;BME280;9862;49.462;11.054;2023-03-18T06:37:59;97744.25;;;10.71;100.00
19447;BME280;9862;49.462;11.054;2023-03-18T06:40:27;97737.06;;;10.72;100.00
19447;BME280;9862;49.462;11.054;2023-03-18T06:42:53;97744.38;;;10.76;100.00
19447;BME280;9862;49.462;11.054;2023-03-18T06:45:21;97752.59;;;10.75;100.00
19447;BME280;9862;49.462;11.054;2023-03-18T06:47:48;97751.56;;;10.76;100.00
19447;BME280;9862;49.462;11.054;2023-03-18T06:50:15;97755.03;;;10.76;100.00
19447;BME280;9862;49.462;11.054;2023-03-18T06:52:41;97758.88;;;10.80;100.00
19447;BME280;9862;49.462;11.054;2023-03-18T06:55:09;97759.06;;;10.85;100.00
19447;BME280;9862;49.462;11.054;2023-03-18T06:57:35;97756.78;;;10.89;100.00
19447;BME280;9862;49.462;11.054;2023-03-18T07:00:02;97750.81;;;10.94;100.00
19447;BME280;9862;49.462;11.054;2023-03-18T07:02:31;97755.69;;;10.97;100.00
19447;BME280;9862;49.462;11.054;2023-03-18T07:04:57;97763.03;;;11.01;100.00
19447;BME280;9862;49.462;11.054;2023-03-18T07:07:26;97764.59;;;11.09;100.00
19447;BME280;9862;49.462;11.054;2023-03-18T07:09:53;97774.25;;;11.10;100.00
19447;BME280;9862;49.462;11.054;2023-03-18T07:12:19;97773.03;;;11.06;100.00
19447;BME280;9862;49.462;11.054;2023-03-18T07:14:46;97771.78;;;11.08;100.00
19447;BME280;9862;49.462;11.054;2023-03-18T07:17:13;97769.91;;;11.09;100.00
19447;BME280;9862;49.462;11.054;2023-03-18T07:19:41;97776.47;;;11.13;100.00
19447;BME280;9862;49.462;11.054;2023-03-18T07:22:07;97783.78;;;11.17;100.00
19447;BME280;9862;49.462;11.054;2023-03-18T07:24:34;97775.06;;;11.29;100.00
19447;BME280;9862;49.462;11.054;2023-03-18T07:27:01;97781.66;;;11.26;100.00
19447;BME280;9862;49.462;11.054;2023-03-18T07:29:28;97785.31;;;11.32;100.00
19447;BME280;9862;49.462;11.054;2023-03-18T07:31:55;97789.38;;;11.34;100.00
19447;BME280;9862;49.462;11.054;2023-03-18T07:34:22;97782.06;;;11.30;100.00
19447;BME280;9862;49.462;11.054;2023-03-18T07:36:49;97790.69;;;11.25;100.00
19447;BME280;9862;49.462;11.054;2023-03-18T07:39:17;97798.22;;;11.28;100.00
19447;BME280;9862;49.462;11.054;2023-03-18T07:41:43;97797.22;;;11.29;100.00
19447;BME280;9862;49.462;11.054;2023-03-18T07:44:10;97790.41;;;11.33;100.00
19447;BME280;9862;49.462;11.054;2023-03-18T07:46:37;97802.88;;;11.39;100.00
19447;BME280;9862;49.462;11.054;2023-03-18T07:49:03;97801.22;;;11.38;100.00
19447;BME280;9862;49.462;11.054;2023-03-18T07:51:30;97803.22;;;11.43;100.00
19447;BME280;9862;49.462;11.054;2023-03-18T07:53:58;97798.50;;;11.45;100.00
19447;BME280;9862;49.462;11.054;2023-03-18T07:56:25;97808.50;;;11.50;100.00
19447;BME280;9862;49.462;11.054;2023-03-18T07:58:52;97807.03;;;11.54;100.00
19447;BME280;9862;49.462;11.054;2023-03-18T08:01:18;97810.06;;;11.57;100.00
19447;BME280;9862;49.462;11.054;2023-03-18T08:03:46;97815.78;;;11.61;100.00
19447;BME280;9862;49.462;11.054;2023-03-18T08:06:13;97817.41;;;11.62;100.00
19447;BME280;9862;49.462;11.054;2023-03-18T08:08:41;97803.78;;;11.70;100.00
19447;BME280;9862;49.462;11.054;2023-03-18T08:11:09;97809.13;;;11.70;100.00
19447;BME280;9862;49.462;11.054;2023-03-18T08:13:36;97806.00;;;11.73;100.00
19447;BME280;9862;49.462;11.054;2023-03-18T08:16:03;97805.34;;;11.78;100.00
19447;BME280;9862;49.462;11.054;2023-03-18T08:18:30;97812.13;;;11.80;100.00
19447;BME280;9862;49.462;11.054;2023-03-18T08:20:56;97810.63;;;11.84;100.00
19447;BME280;9862;49.462;11.054;2023-03-18T08:23:23;97811.84;;;11.88;100.00
19447;BME280;9862;49.462;11.054;2023-03-18T08:25:50;97821.22;;;11.91;100.00
19447;BME280;9862;49.462;11.054;2023-03-18T08:28:18;97823.59;;;11.99;100.00
19447;BME280;9862;49.462;11.054;2023-03-18T08:30:45;97823.38;;;12.00;100.00
19447;BME280;9862;49.462;11.054;2023-03-18T08:33:12;97826.41;;;12.04;100.00
19447;BME280;9862;49.462;11.054;2023-03-18T08:35:39;97819.72;;;12.13;100.00
19447;BME280;9862;49.462;11.054;2023-03-18T08:38:06;97827.91;;;12.18;100.00
19447;BME280;9862;49.462;11.054;2023-03-18T08:40:34;97820.25;;;12.22;100.00
19447;BME280;9862;49.462;11.054;2023-03-18T08:43:00;97817.00;;;12.20;100.00
19447;BME280;9862;49.462;11.054;2023-03-18T08:45:28;97820.53;;;12.32;100.00
19447;BME280;9862;49.462;11.054;2023-03-18T08:47:55;97812.91;;;12.36;100.00
19447;BME280;9862;49.462;11.054;2023-03-18T08:50:21;97820.31;;;12.33;100.00
19447;BME280;9862;49.462;11.054;2023-03-18T08:52:53;97821.94;;;12.35;100.00
19447;BME280;9862;49.462;11.054;2023-03-18T08:55:21;97822.31;;;12.38;100.00
19447;BME280;9862;49.462;11.054;2023-03-18T08:57:47;97818.13;;;12.42;100.00
19447;BME280;9862;49.462;11.054;2023-03-18T09:00:15;97814.66;;;12.42;100.00
19447;BME280;9862;49.462;11.054;2023-03-18T09:02:43;97822.34;;;12.50;100.00
19447;BME280;9862;49.462;11.054;2023-03-18T09:05:10;97823.31;;;12.55;100.00
19447;BME280;9862;49.462;11.054;2023-03-18T09:07:37;97807.56;;;12.66;100.00
19447;BME280;9862;49.462;11.054;2023-03-18T09:10:05;97811.53;;;12.75;100.00
19447;BME280;9862;49.462;11.054;2023-03-18T09:12:31;97811.53;;;12.75;100.00
19447;BME280;9862;49.462;11.054;2023-03-18T09:14:58;97815.53;;;12.84;100.00
19447;BME280;9862;49.462;11.054;2023-03-18T09:17:25;97806.81;;;12.88;100.00
19447;BME280;9862;49.462;11.054;2023-03-18T09:19:53;97803.00;;;12.96;100.00
19447;BME280;9862;49.462;11.054;2023-03-18T09:22:20;97802.53;;;12.99;100.00
19447;BME280;9862;49.462;11.054;2023-03-18T09:24:47;97801.63;;;13.05;100.00
19447;BME280;9862;49.462;11.054;2023-03-18T09:27:13;97798.38;;;13.15;100.00
19447;BME280;9862;49.462;11.054;2023-03-18T09:29:40;97803.53;;;13.28;100.00
19447;BME280;9862;49.462;11.054;2023-03-18T09:32:07;97800.38;;;13.31;100.00
19447;BME280;9862;49.462;11.054;2023-03-18T09:34:33;97792.97;;;13.33;100.00
19447;BME280;9862;49.462;11.054;2023-03-18T09:37:01;97800.28;;;13.38;100.00
19447;BME280;9862;49.462;11.054;2023-03-18T09:39:29;97796.13;;;13.42;100.00
19447;BME280;9862;49.462;11.054;2023-03-18T09:42:12;97802.16;;;13.49;100.00
19447;BME280;9862;49.462;11.054;2023-03-18T09:44:42;97796.34;;;13.64;100.00
19447;BME280;9862;49.462;11.054;2023-03-18T09:47:22;97800.16;;;13.68;100.00
19447;BME280;9862;49.462;11.054;2023-03-18T09:50:08;97791.31;;;13.79;100.00
19447;BME280;9862;49.462;11.054;2023-03-18T09:52:44;97794.22;;;13.78;100.00
19447;BME280;9862;49.462;11.054;2023-03-18T09:55:20;97796.44;;;13.81;100.00
19447;BME280;9862;49.462;11.054;2023-03-18T09:57:51;97802.47;;;13.88;100.00
19447;BME280;9862;49.462;11.054;2023-03-18T10:00:22;97800.97;;;13.92;100.00
19447;BME280;9862;49.462;11.054;2023-03-18T10:02:52;97800.84;;;14.27;98.79
19447;BME280;9862;49.462;11.054;2023-03-18T10:05:24;97799.84;;;14.16;97.57
19447;BME280;9862;49.462;11.054;2023-03-18T10:07:59;97810.69;;;14.10;99.64
19447;BME280;9862;49.462;11.054;2023-03-18T10:10:32;97803.00;;;14.13;100.00
19447;BME280;9862;49.462;11.054;2023-03-18T10:13:06;97802.06;;;14.19;96.61
19447;BME280;9862;49.462;11.054;2023-03-18T10:15:40;97803.06;;;14.30;95.08
19447;BME280;9862;49.462;11.054;2023-03-18T10:18:11;97811.19;;;14.35;95.92
19447;BME280;9862;49.462;11.054;2023-03-18T10:20:50;97805.72;;;14.42;95.17
19447;BME280;9862;49.462;11.054;2023-03-18T10:23:28;97800.84;;;14.39;96.21
19447;BME280;9862;49.462;11.054;2023-03-18T10:26:00;97795.81;;;14.42;97.08
19447;BME280;9862;49.462;11.054;2023-03-18T10:28:57;97795.69;;;14.77;87.01
19447;BME280;9862;49.462;11.054;2023-03-18T10:31:40;97793.81;;;14.78;84.41
19447;BME280;9862;49.462;11.054;2023-03-18T10:34:13;97790.97;;;14.68;86.51
19447;BME280;9862;49.462;11.054;2023-03-18T10:36:48;97789.75;;;14.75;86.82
19447;BME280;9862;49.462;11.054;2023-03-18T10:39:18;97784.72;;;14.96;87.70
19447;BME280;9862;49.462;11.054;2023-03-18T10:41:47;97779.44;;;14.84;86.64
19447;BME280;9862;49.462;11.054;2023-03-18T10:44:19;97781.81;;;14.80;86.99
19447;BME280;9862;49.462;11.054;2023-03-18T10:46:50;97772.56;;;14.88;92.96
19447;BME280;9862;49.462;11.054;2023-03-18T10:49:23;97776.16;;;15.27;91.34
19447;BME280;9862;49.462;11.054;2023-03-18T10:51:53;97771.25;;;15.24;87.12
19447;BME280;9862;49.462;11.054;2023-03-18T10:54:23;97770.94;;;15.21;84.08
19447;BME280;9862;49.462;11.054;2023-03-18T10:56:53;97766.06;;;15.17;84.74
19447;BME280;9862;49.462;11.054;2023-03-18T10:59:21;97763.94;;;15.20;83.89
19447;BME280;9862;49.462;11.054;2023-03-18T11:01:52;97756.97;;;15.18;85.41
19447;BME280;9862;49.462;11.054;2023-03-18T11:04:21;97768.25;;;15.21;85.72
19447;BME280;9862;49.462;11.054;2023-03-18T11:06:50;97767.53;;;15.25;83.16
19447;BME280;9862;49.462;11.054;2023-03-18T11:09:20;97760.38;;;15.31;82.50
19447;BME280;9862;49.462;11.054;2023-03-18T11:11:49;97757.44;;;15.32;83.44
19447;BME280;9862;49.462;11.054;2023-03-18T11:14:19;97750.91;;;15.62;81.56
19447;BME280;9862;49.462;11.054;2023-03-18T11:16:49;97745.53;;;15.62;77.64
19447;BME280;9862;49.462;11.054;2023-03-18T11:19:27;97743.03;;;15.94;74.66
19447;BME280;9862;49.462;11.054;2023-03-18T11:22:16;97749.06;;;15.84;74.13
19447;BME280;9862;49.462;11.054;2023-03-18T11:24:43;97744.13;;;15.76;74.95
19447;BME280;9862;49.462;11.054;2023-03-18T11:27:27;97738.38;;;15.89;74.22
19447;BME280;9862;49.462;11.054;2023-03-18T11:29:57;97742.78;;;15.95;72.88
19447;BME280;9862;49.462;11.054;2023-03-18T11:32:26;97737.72;;;15.77;74.28
19447;BME280;9862;49.462;11.054;2023-03-18T11:34:54;97737.28;;;15.85;74.50
19447;BME280;9862;49.462;11.054;2023-03-18T11:37:26;97743.31;;;15.97;72.60
19447;BME280;9862;49.462;11.054;2023-03-18T11:40:05;97739.88;;;15.80;73.10
19447;BME280;9862;49.462;11.054;2023-03-18T11:42:37;97743.88;;;15.78;74.34
19447;BME280;9862;49.462;11.054;2023-03-18T11:45:16;97736.66;;;15.78;75.67
19447;BME280;9862;49.462;11.054;2023-03-18T11:47:46;97734.59;;;15.85;76.05
19447;BME280;9862;49.462;11.054;2023-03-18T11:50:18;97727.66;;;15.89;75.28
19447;BME280;9862;49.462;11.054;2023-03-18T11:52:48;97720.75;;;15.93;74.25
19447;BME280;9862;49.462;11.054;2023-03-18T11:55:25;97715.94;;;15.95;74.78
19447;BME280;9862;49.462;11.054;2023-03-18T11:58:15;97724.09;;;16.06;75.77
19447;BME280;9862;49.462;11.054;2023-03-18T12:00:52;97716.44;;;16.19;73.41
19447;BME280;9862;49.462;11.054;2023-03-18T12:03:51;97721.53;;;16.16;73.43
19447;BME280;9862;49.462;11.054;2023-03-18T12:06:24;97711.31;;;16.13;73.02
19447;BME280;9862;49.462;11.054;2023-03-18T12:09:00;97700.06;;;16.16;73.44
19447;BME280;9862;49.462;11.054;2023-03-18T12:14:36;97712.09;;;16.40;73.61
19447;BME280;9862;49.462;11.054;2023-03-18T12:17:23;97703.00;;;16.41;71.81
19447;BME280;9862;49.462;11.054;2023-03-18T12:20:15;97698.63;;;16.35;71.85
19447;BME280;9862;49.462;11.054;2023-03-18T12:22:57;97695.34;;;16.28;72.76
19447;BME280;9862;49.462;11.054;2023-03-18T12:25:37;97692.09;;;16.53;69.73
19447;BME280;9862;49.462;11.054;2023-03-18T12:28:16;97689.88;;;16.72;69.26
19447;BME280;9862;49.462;11.054;2023-03-18T12:31:05;97685.91;;;16.79;66.94
19447;BME280;9862;49.462;11.054;2023-03-18T12:33:47;97684.94;;;16.64;67.95
19447;BME280;9862;49.462;11.054;2023-03-18T12:36:21;97683.25;;;16.84;67.73
19447;BME280;9862;49.462;11.054;2023-03-18T12:39:15;97684.03;;;16.80;67.97
19447;BME280;9862;49.462;11.054;2023-03-18T12:41:53;97682.25;;;16.64;69.33
19447;BME280;9862;49.462;11.054;2023-03-18T12:44:33;97677.38;;;16.60;69.67
19447;BME280;9862;49.462;11.054;2023-03-18T12:47:12;97674.44;;;16.62;68.70
19447;BME280;9862;49.462;11.054;2023-03-18T12:49:43;97671.59;;;16.74;66.81
19447;BME280;9862;49.462;11.054;2023-03-18T12:52:19;97664.25;;;16.64;67.44
19447;BME280;9862;49.462;11.054;2023-03-18T12:54:50;97672.94;;;16.71;67.79
19447;BME280;9862;49.462;11.054;2023-03-18T12:57:27;97675.88;;;16.70;68.68
19447;BME280;9862;49.462;11.054;2023-03-18T12:59:58;97673.72;;;17.04;66.70
19447;BME280;9862;49.462;11.054;2023-03-18T13:02:39;97671.66;;;17.21;65.40
19447;BME280;9862;49.462;11.054;2023-03-18T13:05:17;97666.88;;;17.28;64.44
19447;BME280;9862;49.462;11.054;2023-03-18T13:07:50;97669.25;;;17.25;64.69
19447;BME280;9862;49.462;11.054;2023-03-18T13:10:20;97665.00;;;17.34;64.09